createdAt,value
2022-08-17T00:02:25.952Z,96481.31
2022-08-17T00:04:54.143Z,96480.94
2022-08-17T00:07:20.962Z,96480.63
2022-08-17T00:09:47.591Z,96480.16
2022-08-17T00:12:42.639Z,96478.66
2022-08-17T00:15:01.233Z,96476.16
2022-08-17T00:17:27.964Z,96484.16
2022-08-17T00:19:54.615Z,96481.50
2022-08-17T00:22:33.214Z,96490.25
2022-08-17T00:25:05.321Z,96481.72
2022-08-17T00:27:31.943Z,96495.09
2022-08-17T00:29:58.596Z,96491.59
2022-08-17T00:33:12.357Z,96483.06
2022-08-17T00:35:15.148Z,96481.41
2022-08-17T00:37:42.255Z,96483.53
2022-08-17T00:40:12.432Z,96471.03
2022-08-17T00:42:39.710Z,96475.25
2022-08-17T00:45:09.643Z,96479.25
2022-08-17T00:47:36.456Z,96489.59
2022-08-17T00:50:05.262Z,96485.09
2022-08-17T00:52:37.249Z,96476.75
2022-08-17T00:55:06.184Z,96484.56
2022-08-17T00:57:38.059Z,96483.91
2022-08-17T01:00:14.242Z,96479.75
2022-08-17T01:02:43.659Z,96489.59
2022-08-17T01:05:15.071Z,96480.09
2022-08-17T01:07:43.407Z,96482.09
2022-08-17T01:10:59.176Z,96480.25
2022-08-17T01:13:02.595Z,96474.22
2022-08-17T01:15:31.862Z,96473.72
2022-08-17T01:17:58.482Z,96466.56
2022-08-17T01:20:25.110Z,96472.53
2022-08-17T01:22:52.749Z,96472.41
2022-08-17T01:25:20.567Z,96476.75
2022-08-17T01:27:48.596Z,96469.75
2022-08-17T01:30:58.911Z,96473.06
2022-08-17T01:33:02.723Z,96477.09
2022-08-17T01:35:29.327Z,96481.25
2022-08-17T01:37:56.019Z,96479.94
2022-08-17T01:40:29.006Z,96470.41
2022-08-17T01:43:00.177Z,96474.59
2022-08-17T01:45:30.338Z,96480.25
2022-08-17T01:47:57.109Z,96482.09
2022-08-17T01:50:27.547Z,96477.94
2022-08-17T01:52:59.886Z,96483.91
2022-08-17T01:55:41.088Z,96482.25
2022-08-17T01:58:09.820Z,96477.09
2022-08-17T02:00:59.474Z,96480.59
2022-08-17T02:03:27.079Z,96468.56
2022-08-17T02:05:53.795Z,96465.88
2022-08-17T02:08:36.984Z,96466.22
2022-08-17T02:11:14.637Z,96469.38
2022-08-17T02:13:41.995Z,96469.72
2022-08-17T02:16:08.612Z,96473.56
2022-08-17T02:18:35.383Z,96473.56
2022-08-17T02:21:02.574Z,96468.38
2022-08-17T02:23:32.176Z,96462.13
2022-08-17T02:26:00.102Z,96472.13
2022-08-17T02:28:28.450Z,96459.06
2022-08-17T02:31:01.278Z,96464.78
2022-08-17T02:33:41.759Z,96471.97
2022-08-17T02:36:11.631Z,96471.81
2022-08-17T02:38:39.447Z,96486.69
2022-08-17T02:41:06.742Z,96481.19
2022-08-17T02:43:33.511Z,96472.81
2022-08-17T02:46:00.391Z,96475.13
2022-08-17T02:48:31.637Z,96473.50
2022-08-17T02:50:59.828Z,96473.47
2022-08-17T02:53:27.371Z,96470.41
2022-08-17T02:56:00.301Z,96469.47
2022-08-17T02:58:35.471Z,96467.09
2022-08-17T03:01:04.933Z,96467.94
2022-08-17T03:03:32.184Z,96461.75
2022-08-17T03:05:58.798Z,96461.41
2022-08-17T03:08:25.613Z,96461.53
2022-08-17T03:10:52.881Z,96468.75
2022-08-17T03:13:20.132Z,96461.75
2022-08-17T03:15:48.425Z,96455.25
2022-08-17T03:18:19.111Z,96458.91
2022-08-17T03:20:58.707Z,96458.44
2022-08-17T03:23:27.655Z,96460.28
2022-08-17T03:25:57.010Z,96460.78
2022-08-17T03:28:24.517Z,96460.78
2022-08-17T03:30:52.089Z,96459.44
2022-08-17T03:33:19.884Z,96457.47
2022-08-17T03:35:46.518Z,96463.63
2022-08-17T03:38:17.028Z,96455.13
2022-08-17T03:40:56.852Z,96462.94
2022-08-17T03:43:31.116Z,96459.28
2022-08-17T03:46:29.009Z,96462.28
2022-08-17T03:49:26.265Z,96460.88
2022-08-17T03:52:15.902Z,96469.22
2022-08-17T03:55:02.609Z,96463.38
2022-08-17T03:57:30.546Z,96469.75
2022-08-17T03:59:57.281Z,96466.09
2022-08-17T04:02:34.444Z,96459.63
2022-08-17T04:05:01.172Z,96462.94
2022-08-17T04:07:30.268Z,96461.78
2022-08-17T04:09:58.095Z,96457.47
2022-08-17T04:12:25.880Z,96464.34
2022-08-17T04:14:54.750Z,96464.03
2022-08-17T04:17:28.383Z,96462.84
2022-08-17T04:19:56.290Z,96459.34
2022-08-17T04:22:30.601Z,96465.88
2022-08-17T04:25:15.217Z,96461.19
2022-08-17T04:27:41.931Z,96464.41
2022-08-17T04:30:09.165Z,96466.56
2022-08-17T04:33:06.259Z,96470.09
2022-08-17T04:35:40.775Z,96467.53
2022-08-17T04:38:10.631Z,96465.56
2022-08-17T04:40:55.939Z,96471.69
2022-08-17T04:43:25.116Z,96473.19
2022-08-17T04:46:04.743Z,96479.81
2022-08-17T04:48:36.593Z,96475.19
2022-08-17T04:51:25.555Z,96470.19
2022-08-17T04:53:55.815Z,96474.72
2022-08-17T04:56:25.112Z,96471.88
2022-08-17T04:58:55.059Z,96462.06
2022-08-17T05:01:23.624Z,96463.31
2022-08-17T05:03:53.494Z,96467.91
2022-08-17T05:06:20.621Z,96460.38
2022-08-17T05:08:47.280Z,96462.16
2022-08-17T05:11:14.967Z,96455.41
2022-08-17T05:13:41.903Z,96460.09
2022-08-17T05:16:09.182Z,96456.69
2022-08-17T05:18:37.290Z,96461.47
2022-08-17T05:21:04.317Z,96477.03
2022-08-17T05:23:41.642Z,96473.72
2022-08-17T05:26:25.603Z,96468.28
2022-08-17T05:28:54.608Z,96464.34
2022-08-17T05:31:23.793Z,96471.00
2022-08-17T05:33:50.580Z,96460.94
2022-08-17T05:36:41.622Z,96459.72
2022-08-17T05:39:04.075Z,96455.13
2022-08-17T05:41:30.656Z,96443.13
2022-08-17T05:43:57.257Z,96448.34
2022-08-17T05:46:28.028Z,96443.97
2022-08-17T05:49:03.685Z,96448.75
2022-08-17T05:51:57.667Z,96445.94
2022-08-17T05:54:36.326Z,96457.50
2022-08-17T05:57:44.787Z,96469.06
2022-08-17T06:00:31.410Z,96464.88
2022-08-17T06:03:16.735Z,96466.19
2022-08-17T06:06:06.006Z,96470.09
2022-08-17T06:09:11.332Z,96466.75
2022-08-17T06:12:00.111Z,96453.59
2022-08-17T06:14:54.643Z,96457.00
2022-08-17T06:17:25.046Z,96463.53
2022-08-17T06:20:08.622Z,96460.84
2022-08-17T06:22:41.145Z,96466.50
2022-08-17T06:25:42.951Z,96463.16
2022-08-17T06:28:14.823Z,96461.75
2022-08-17T06:30:59.251Z,96461.88
2022-08-17T06:33:34.451Z,96456.38
2022-08-17T06:36:28.065Z,96452.34
2022-08-17T06:39:16.445Z,96452.81
2022-08-17T06:42:05.576Z,96461.81
2022-08-17T06:44:52.327Z,96457.53
2022-08-17T06:47:50.088Z,96461.09
2022-08-17T06:50:35.978Z,96462.13
2022-08-17T06:53:13.810Z,96457.94
2022-08-17T06:56:09.588Z,96458.69
2022-08-17T06:58:40.115Z,96457.53
2022-08-17T07:01:26.813Z,96470.47
2022-08-17T07:04:06.725Z,96478.38
2022-08-17T07:06:53.127Z,96474.66
2022-08-17T07:09:31.382Z,96464.88
2022-08-17T07:12:04.388Z,96462.84
2022-08-17T07:14:50.135Z,96467.22
2022-08-17T07:17:19.022Z,96460.88
2022-08-17T07:19:49.045Z,96459.81
2022-08-17T07:22:21.835Z,96455.22
2022-08-17T07:24:58.650Z,96458.84
2022-08-17T07:27:51.081Z,96459.84
2022-08-17T07:30:22.688Z,96461.84
2022-08-17T07:32:53.402Z,96459.88
2022-08-17T07:35:37.635Z,96467.31
2022-08-17T07:38:24.219Z,96471.47
2022-08-17T07:41:02.152Z,96464.28
2022-08-17T07:43:38.071Z,96474.75
2022-08-17T07:46:42.922Z,96482.41
2022-08-17T07:49:09.461Z,96480.66
2022-08-17T07:51:48.033Z,96488.72
2022-08-17T07:54:22.176Z,96480.66
2022-08-17T07:56:57.855Z,96484.69
2022-08-17T07:59:40.768Z,96494.94
2022-08-17T08:02:38.573Z,96498.09
2022-08-17T08:05:13.068Z,96493.03
2022-08-17T08:07:51.137Z,96500.28
2022-08-17T08:10:27.683Z,96497.59
2022-08-17T08:13:15.364Z,96505.75
2022-08-17T08:15:54.076Z,96513.44
2022-08-17T08:18:54.108Z,96508.66
2022-08-17T08:21:22.410Z,96505.22
2022-08-17T08:24:09.951Z,96506.47
2022-08-17T08:26:47.512Z,96501.63
2022-08-17T08:29:40.967Z,96494.19
2022-08-17T08:32:25.355Z,96500.41
2022-08-17T08:35:22.666Z,96503.50
2022-08-17T08:37:58.266Z,96507.44
2022-08-17T08:40:45.501Z,96507.03
2022-08-17T08:43:27.499Z,96505.84
2022-08-17T08:46:34.792Z,96512.81
2022-08-17T08:49:59.076Z,96519.50
2022-08-17T08:52:48.135Z,96518.47
2022-08-17T08:55:17.736Z,96513.50
2022-08-17T08:57:52.333Z,96506.22
2022-08-17T09:00:23.315Z,96503.44
2022-08-17T09:03:51.519Z,96502.59
2022-08-17T09:06:33.285Z,96510.50
2022-08-17T09:09:16.036Z,96506.84
2022-08-17T09:12:02.850Z,96496.47
2022-08-17T09:14:50.619Z,96496.16
2022-08-17T09:17:21.946Z,96496.38
2022-08-17T09:19:55.276Z,96506.97
2022-08-17T09:22:42.744Z,96513.47
2022-08-17T09:25:14.162Z,96513.31
2022-08-17T09:27:53.020Z,96509.56
2022-08-17T09:30:20.979Z,96514.31
2022-08-17T09:32:55.343Z,96515.94
2022-08-17T09:35:36.653Z,96510.97
2022-08-17T09:38:32.520Z,96529.09
2022-08-17T09:41:31.562Z,96540.09
2022-08-17T09:44:31.180Z,96532.41
2022-08-17T09:47:12.936Z,96546.09
2022-08-17T09:50:00.386Z,96547.13
2022-08-17T09:52:31.171Z,96542.94
2022-08-17T09:55:00.236Z,96536.56
2022-08-17T09:57:58.329Z,96547.13
2022-08-17T10:00:30.886Z,96535.31
2022-08-17T10:03:08.352Z,96538.59
2022-08-17T10:06:10.034Z,96544.44
2022-08-17T10:08:42.088Z,96546.16
2022-08-17T10:11:33.445Z,96542.47
2022-08-17T10:14:36.972Z,96546.41
2022-08-17T10:17:09.910Z,96552.50
2022-08-17T10:19:44.358Z,96547.53
2022-08-17T10:22:44.293Z,96540.41
2022-08-17T10:25:53.568Z,96542.59
2022-08-17T10:28:28.915Z,96536.91
2022-08-17T10:31:30.987Z,96540.53
2022-08-17T10:34:11.974Z,96533.50
2022-08-17T10:37:04.678Z,96532.38
2022-08-17T10:39:52.509Z,96528.25
2022-08-17T10:42:34.440Z,96527.38
2022-08-17T10:45:18.861Z,96531.03
2022-08-17T10:48:07.480Z,96522.09
2022-08-17T10:51:00.219Z,96525.47
2022-08-17T10:53:32.654Z,96521.03
2022-08-17T10:56:14.525Z,96517.50
2022-08-17T10:58:56.118Z,96510.91
2022-08-17T11:01:43.434Z,96506.94
2022-08-17T11:04:25.181Z,96511.50
2022-08-17T11:07:13.014Z,96502.22
2022-08-17T11:10:23.756Z,96491.88
2022-08-17T11:12:55.332Z,96500.97
2022-08-17T11:15:41.324Z,96504.41
2022-08-17T11:18:29.823Z,96506.25
2022-08-17T11:20:59.653Z,96501.28
2022-08-17T11:23:44.974Z,96517.28
2022-08-17T11:26:25.959Z,96517.75
2022-08-17T11:28:58.910Z,96516.66
2022-08-17T11:31:39.102Z,96519.41
2022-08-17T11:34:17.212Z,96528.03
2022-08-17T11:36:57.167Z,96526.63
2022-08-17T11:39:50.576Z,96528.25
2022-08-17T11:42:37.490Z,96528.25
2022-08-17T11:45:32.421Z,96511.47
2022-08-17T11:48:42.580Z,96526.13
2022-08-17T11:51:33.757Z,96521.06
2022-08-17T11:54:30.698Z,96524.22
2022-08-17T11:56:49.803Z,96521.13
2022-08-17T11:59:41.793Z,96525.09
2022-08-17T12:02:34.691Z,96522.72
2022-08-17T12:05:25.271Z,96519.03
2022-08-17T12:08:11.300Z,96529.72
2022-08-17T12:10:51.395Z,96523.84
2022-08-17T12:13:19.123Z,96532.72
2022-08-17T12:15:50.375Z,96519.53
2022-08-17T12:18:27.984Z,96521.38
2022-08-17T12:21:19.794Z,96517.69
2022-08-17T12:23:57.707Z,96512.31
2022-08-17T12:26:31.596Z,96517.34
2022-08-17T12:29:05.229Z,96515.78
2022-08-17T12:31:43.617Z,96518.47
2022-08-17T12:34:20.409Z,96514.69
2022-08-17T12:36:53.369Z,96519.22
2022-08-17T12:39:24.925Z,96519.41
2022-08-17T12:42:01.945Z,96532.00
2022-08-17T12:44:35.271Z,96527.19
2022-08-17T12:47:19.406Z,96523.75
2022-08-17T12:49:53.819Z,96512.88
2022-08-17T12:52:25.075Z,96517.03
2022-08-17T12:54:51.614Z,96508.31
2022-08-17T12:57:38.371Z,96511.59
2022-08-17T13:00:10.049Z,96522.44
2022-08-17T13:02:47.585Z,96523.13
2022-08-17T13:05:27.631Z,96512.88
2022-08-17T13:07:57.290Z,96513.47
2022-08-17T13:10:33.061Z,96507.31
2022-08-17T13:13:05.253Z,96505.25
2022-08-17T13:15:44.697Z,96503.00
2022-08-17T13:18:38.978Z,96511.00
2022-08-17T13:21:11.788Z,96508.38
2022-08-17T13:23:38.500Z,96514.41
2022-08-17T13:26:07.957Z,96515.59
2022-08-17T13:28:36.766Z,96508.31
2022-08-17T13:31:28.007Z,96494.19
2022-08-17T13:34:31.129Z,96493.88
2022-08-17T13:37:25.709Z,96499.09
2022-08-17T13:40:14.573Z,96506.50
2022-08-17T13:42:59.577Z,96496.16
2022-08-17T13:45:36.899Z,96494.63
2022-08-17T13:48:08.771Z,96489.97
2022-08-17T13:50:42.929Z,96493.44
2022-08-17T13:53:19.102Z,96491.13
2022-08-17T13:55:55.296Z,96484.78
2022-08-17T13:58:31.615Z,96482.66
2022-08-17T14:01:18.790Z,96472.41
2022-08-17T14:03:45.418Z,96481.59
2022-08-17T14:06:23.711Z,96490.28
2022-08-17T14:09:04.904Z,96484.94
2022-08-17T14:11:31.528Z,96481.84
2022-08-17T14:13:58.735Z,96482.56
2022-08-17T14:16:25.389Z,96477.69
2022-08-17T14:18:56.650Z,96478.78
2022-08-17T14:21:24.092Z,96467.59
2022-08-17T14:23:54.982Z,96472.63
2022-08-17T14:26:21.846Z,96486.91
2022-08-17T14:28:56.740Z,96479.38
2022-08-17T14:31:24.017Z,96475.56
2022-08-17T14:33:51.458Z,96476.69
2022-08-17T14:36:18.100Z,96478.28
2022-08-17T14:38:45.143Z,96476.41
2022-08-17T14:41:11.840Z,96476.84
2022-08-17T14:43:39.929Z,96470.06
2022-08-17T14:46:06.662Z,96475.84
2022-08-17T14:48:35.048Z,96475.59
2022-08-17T14:51:01.624Z,96482.94
2022-08-17T14:53:28.219Z,96478.44
2022-08-17T14:55:54.899Z,96480.31
2022-08-17T14:58:22.459Z,96471.06
2022-08-17T15:00:51.019Z,96474.09
2022-08-17T15:03:18.715Z,96477.75
2022-08-17T15:05:46.726Z,96478.72
2022-08-17T15:08:13.495Z,96473.19
2022-08-17T15:10:40.182Z,96479.75
2022-08-17T15:13:22.330Z,96479.41
2022-08-17T15:15:49.652Z,96483.69
2022-08-17T15:18:17.095Z,96472.81
2022-08-17T15:20:44.522Z,96481.25
2022-08-17T15:23:20.044Z,96474.22
2022-08-17T15:25:48.911Z,96469.50
2022-08-17T15:28:16.384Z,96477.16
2022-08-17T15:30:44.874Z,96479.28
2022-08-17T15:33:17.930Z,96468.81
2022-08-17T15:35:45.436Z,96476.47
2022-08-17T15:38:13.080Z,96476.53
2022-08-17T15:40:46.163Z,96474.16
2022-08-17T15:43:23.466Z,96470.63
2022-08-17T15:46:17.241Z,96463.78
2022-08-17T15:48:46.318Z,96474.22
2022-08-17T15:51:14.603Z,96474.88
2022-08-17T15:53:43.656Z,96477.06
2022-08-17T15:56:11.279Z,96472.66
2022-08-17T15:58:38.202Z,96478.66
2022-08-17T16:01:16.975Z,96478.06
2022-08-17T16:04:04.731Z,96472.03
2022-08-17T16:06:42.300Z,96473.22
2022-08-17T16:09:08.910Z,96471.69
2022-08-17T16:11:35.514Z,96474.75
2022-08-17T16:14:02.122Z,96479.16
2022-08-17T16:16:31.117Z,96478.13
2022-08-17T16:18:59.174Z,96472.56
2022-08-17T16:21:26.680Z,96476.88
2022-08-17T16:24:13.637Z,96481.31
2022-08-17T16:26:42.025Z,96473.66
2022-08-17T16:29:09.045Z,96470.94
2022-08-17T16:31:38.806Z,96474.94
2022-08-17T16:34:17.240Z,96468.00
2022-08-17T16:36:53.771Z,96476.75
2022-08-17T16:39:29.210Z,96472.28
2022-08-17T16:41:57.153Z,96484.84
2022-08-17T16:44:24.399Z,96481.81
2022-08-17T16:46:51.476Z,96489.94
2022-08-17T16:49:37.451Z,96484.28
2022-08-17T16:52:10.556Z,96488.47
2022-08-17T16:54:41.874Z,96480.75
2022-08-17T16:57:08.608Z,96486.47
2022-08-17T16:59:40.896Z,96486.88
2022-08-17T17:02:13.086Z,96483.53
2022-08-17T17:05:02.816Z,96491.72
2022-08-17T17:07:54.824Z,96486.09
2022-08-17T17:10:32.675Z,96487.72
2022-08-17T17:13:01.571Z,96485.84
2022-08-17T17:15:43.620Z,96491.19
2022-08-17T17:18:12.642Z,96486.31
2022-08-17T17:20:48.874Z,96482.97
2022-08-17T17:23:30.240Z,96494.16
2022-08-17T17:26:02.507Z,96493.44
2022-08-17T17:28:48.656Z,96492.06
2022-08-17T17:31:23.737Z,96491.25
2022-08-17T17:33:55.619Z,96494.66
2022-08-17T17:36:47.122Z,96496.44
2022-08-17T17:39:41.433Z,96501.69
2022-08-17T17:42:20.184Z,96505.06
2022-08-17T17:44:51.400Z,96504.94
2022-08-17T17:47:17.984Z,96505.16
2022-08-17T17:49:48.683Z,96506.25
2022-08-17T17:52:53.875Z,96510.84
2022-08-17T17:55:35.336Z,96509.66
2022-08-17T17:58:23.175Z,96505.94
2022-08-17T18:01:17.612Z,96499.72
2022-08-17T18:03:50.388Z,96497.91
2022-08-17T18:06:39.822Z,96503.50
2022-08-17T18:09:18.062Z,96510.59
2022-08-17T18:12:00.338Z,96512.03
2022-08-17T18:14:54.110Z,96515.19
2022-08-17T18:17:20.768Z,96514.38
2022-08-17T18:19:48.368Z,96525.34
2022-08-17T18:22:24.909Z,96522.22
2022-08-17T18:24:56.172Z,96519.91
2022-08-17T18:27:32.060Z,96529.22
2022-08-17T18:30:22.511Z,96527.97
2022-08-17T18:32:49.522Z,96536.44
2022-08-17T18:35:18.847Z,96537.22
2022-08-17T18:37:48.741Z,96550.63
2022-08-17T18:40:19.074Z,96548.47
2022-08-17T18:42:58.071Z,96557.25
2022-08-17T18:45:33.965Z,96563.31
2022-08-17T18:48:01.019Z,96569.16
2022-08-17T18:50:35.883Z,96574.44
2022-08-17T18:53:33.451Z,96579.69
2022-08-17T18:56:25.308Z,96580.09
2022-08-17T18:59:09.144Z,96580.16
2022-08-17T19:01:53.699Z,96582.72
2022-08-17T19:04:37.971Z,96595.34
2022-08-17T19:07:10.112Z,96600.94
2022-08-17T19:09:43.098Z,96597.91
2022-08-17T19:12:26.439Z,96597.25
2022-08-17T19:14:56.650Z,96598.75
2022-08-17T19:17:42.763Z,96603.91
2022-08-17T19:20:24.103Z,96610.81
2022-08-17T19:22:57.349Z,96618.22
2022-08-17T19:25:31.468Z,96619.75
2022-08-17T19:28:21.674Z,96625.03
2022-08-17T19:30:54.968Z,96622.59
2022-08-17T19:33:22.031Z,96624.81
2022-08-17T19:36:09.986Z,96635.25
2022-08-17T19:39:03.758Z,96638.34
2022-08-17T19:42:05.879Z,96638.72
2022-08-17T19:45:12.907Z,96644.81
2022-08-17T19:48:12.456Z,96647.09
2022-08-17T19:51:09.518Z,96645.31
2022-08-17T19:54:05.315Z,96647.03
2022-08-17T19:56:57.940Z,96644.59
2022-08-17T19:59:53.957Z,96650.69
2022-08-17T20:02:28.610Z,96646.38
2022-08-17T20:04:59.925Z,96647.94
2022-08-17T20:07:37.156Z,96650.47
2022-08-17T20:10:11.019Z,96657.34
2022-08-17T20:12:40.055Z,96658.06
2022-08-17T20:15:11.926Z,96659.59
2022-08-17T20:17:42.832Z,96661.78
2022-08-17T20:20:19.937Z,96662.31
2022-08-17T20:23:18.956Z,96668.69
2022-08-17T20:26:06.245Z,96660.34
2022-08-17T20:28:35.845Z,96659.19
2022-08-17T20:31:25.451Z,96657.66
2022-08-17T20:33:55.015Z,96666.38
2022-08-17T20:36:24.761Z,96665.00
2022-08-17T20:38:54.690Z,96668.38
2022-08-17T20:41:24.894Z,96663.34
2022-08-17T20:43:58.280Z,96668.88
2022-08-17T20:46:30.828Z,96662.84
2022-08-17T20:49:27.013Z,96661.88
2022-08-17T20:52:10.288Z,96665.06
2022-08-17T20:54:54.835Z,96672.91
2022-08-17T20:57:37.176Z,96672.91
2022-08-17T21:00:32.823Z,96669.38
2022-08-17T21:03:24.331Z,96667.88
2022-08-17T21:06:00.081Z,96674.56
2022-08-17T21:08:33.286Z,96675.53
2022-08-17T21:11:20.907Z,96671.50
2022-08-17T21:14:23.976Z,96678.97
2022-08-17T21:16:56.693Z,96689.03
2022-08-17T21:19:40.667Z,96685.38
2022-08-17T21:22:22.458Z,96687.72
2022-08-17T21:24:57.672Z,96685.91
2022-08-17T21:28:01.827Z,96680.19
2022-08-17T21:30:28.346Z,96681.91
2022-08-17T21:33:18.576Z,96678.84
2022-08-17T21:36:11.835Z,96687.00
2022-08-17T21:38:57.421Z,96694.53
2022-08-17T21:41:33.789Z,96690.84
2022-08-17T21:44:34.502Z,96680.13
2022-08-17T21:47:21.712Z,96680.13
2022-08-17T21:49:48.347Z,96683.66
2022-08-17T21:52:18.055Z,96692.75
2022-08-17T21:54:57.581Z,96687.63
2022-08-17T21:57:30.136Z,96686.16
2022-08-17T22:00:00.368Z,96679.59
2022-08-17T22:02:36.112Z,96682.09
2022-08-17T22:05:13.089Z,96681.91
2022-08-17T22:07:53.319Z,96687.47
2022-08-17T22:10:37.759Z,96688.41
2022-08-17T22:13:29.418Z,96691.41
2022-08-17T22:16:28.891Z,96690.63
2022-08-17T22:18:58.967Z,96698.72
2022-08-17T22:21:26.176Z,96689.88
2022-08-17T22:24:06.553Z,96689.88
2022-08-17T22:27:07.590Z,96693.06
2022-08-17T22:29:53.321Z,96705.34
2022-08-17T22:32:46.271Z,96711.59
2022-08-17T22:35:29.249Z,96711.13
2022-08-17T22:37:57.032Z,96715.16
2022-08-17T22:40:34.442Z,96710.00
2022-08-17T22:43:03.499Z,96718.41
2022-08-17T22:45:30.411Z,96719.25
2022-08-17T22:48:00.125Z,96719.09
2022-08-17T22:50:29.879Z,96721.28
2022-08-17T22:53:19.080Z,96722.09
2022-08-17T22:56:11.485Z,96719.44
2022-08-17T22:59:17.605Z,96724.94
2022-08-17T23:02:05.707Z,96723.63
2022-08-17T23:04:38.271Z,96729.63
2022-08-17T23:07:06.528Z,96730.31
2022-08-17T23:09:34.061Z,96730.44
2022-08-17T23:12:00.920Z,96732.47
2022-08-17T23:14:32.008Z,96738.66
2022-08-17T23:17:01.660Z,96736.66
2022-08-17T23:19:31.651Z,96732.28
2022-08-17T23:21:59.602Z,96728.97
2022-08-17T23:24:28.505Z,96723.97
2022-08-17T23:26:57.280Z,96723.59
2022-08-17T23:29:25.118Z,96722.91
2022-08-17T23:31:52.680Z,96720.56
2022-08-17T23:34:19.601Z,96722.72
2022-08-17T23:36:51.322Z,96718.75
2022-08-17T23:39:27.409Z,96716.72
2022-08-17T23:41:59.419Z,96716.13
2022-08-17T23:44:27.223Z,96715.94
2022-08-17T23:46:53.970Z,96714.75
2022-08-17T23:49:20.614Z,96718.75
2022-08-17T23:51:48.540Z,96723.78
2022-08-17T23:54:33.558Z,96718.59
2022-08-17T23:57:04.832Z,96718.25
2022-08-17T23:59:32.913Z,96721.59
